Evening Star — WDG5061 — position and weather

sailwx.info

Track history (hours):
 
Tides and Currents Weather Stations Pressure Air Temp Water Temp Dewpoint Dewpoint Depression Visibility Wind Speed Wind Dir Waves Ship Positions

Evening Star

Owner: Tug Evening Star Corp, Melville, NY. More information available from US FCC via Universal Licensing System and Coast Guard Vessel Documentation Center.

Last reported at 2017-Nov-18 06:28 UTC. Time now 2017-Nov-18 17:52 UTC.
Position N 41°14' W 072°08'.

Length 34 m; draft 5.5 m.

Type: Towing. MMSI: 366834000.

Date/timePositionNaut miles runAvg speedWind from/ knotsBaromVisibWave heightAir tempDewpointWater temp
2017-Nov-18 06:28N 41°14' W 072°08'612.0
2017-Nov-18 06:00N 41°12' W 072°15'611.7
2017-Nov-18 05:30N 41°11' W 072°23'611.2
2017-Nov-18 05:00N 41°10' W 072°30'510.4
2017-Nov-18 04:30N 41°11' W 072°37'49 2.5
2017-Nov-17 08:53N 40°55' W 073°39'4 9.3
2017-Nov-17 08:29N 40°53' W 073°43'5 9.6
2017-Nov-17 07:59N 40°49' W 073°47'4 7.8
2017-Nov-17 07:30N 40°48' W 073°52'3 6.6
2017-Nov-17 07:00N 40°47' W 073°56'3 6.0
2017-Nov-17 06:30N 40°45' W 073°58'3 5.3
2017-Nov-17 06:00N 40°42' W 073°60'4 7.1
2017-Nov-17 05:30N 40°39' W 074°03'4 7.6
2017-Nov-17 05:00N 40°39' W 074°08'3 6.7
2017-Nov-17 04:30N 40°38' W 074°12'5 2.8
2017-Nov-17 02:38N 40°33' W 074°15'4 0.8
2017-Nov-16 21:55N 40°36' W 074°12'3 7.8
2017-Nov-16 21:30N 40°39' W 074°10'1 2.0
2017-Nov-16 20:59N 40°39' W 074°09'4 6.1
2017-Nov-16 20:18N 40°35' W 074°13'0 0.1
2017-Nov-16 19:59N 40°35' W 074°12'3 5.3
2017-Nov-16 19:30N 40°38' W 074°12'1 2.2
2017-Nov-16 18:59N 40°37' W 074°12'4 1.0
2017-Nov-16 14:36N 40°33' W 074°15'1 2.9
2017-Nov-16 14:22N 40°33' W 074°15'2 4.4
2017-Nov-16 13:58N 40°34' W 074°13'2 4.2
2017-Nov-16 13:29N 40°36' W 074°12'2 3.9
2017-Nov-16 13:00N 40°38' W 074°12'4 8.1
2017-Nov-16 12:30N 40°39' W 074°07'4 7.5
2017-Nov-16 12:00N 40°40' W 074°02'0 0.1
2017-Nov-16 11:30N 40°40' W 074°02'0 0.1
2017-Nov-16 11:00N 40°40' W 074°02'0 0.0
2017-Nov-16 10:30N 40°40' W 074°02'0 0.0
2017-Nov-16 10:00N 40°40' W 074°02'0 0.0
2017-Nov-16 09:30N 40°40' W 074°02'0 0.0
2017-Nov-16 09:00N 40°40' W 074°02'0 0.0
2017-Nov-16 08:30N 40°40' W 074°02'0 0.2
2017-Nov-16 08:00N 40°40' W 074°02'0 0.1
2017-Nov-16 07:30N 40°40' W 074°02'0 0.0
2017-Nov-16 07:00N 40°40' W 074°02'0 0.1
2017-Nov-16 06:30N 40°40' W 074°02'0 0.0
2017-Nov-16 06:00N 40°40' W 074°02'0 0.0
2017-Nov-16 05:30N 40°40' W 074°02'0 0.0
2017-Nov-16 05:00N 40°40' W 074°02'0 0.0
2017-Nov-16 04:30N 40°40' W 074°02'0 0.0
2017-Nov-16 04:00N 40°40' W 074°02'0 0.0
2017-Nov-16 03:30N 40°40' W 074°02'0 0.0
2017-Nov-16 03:00N 40°40' W 074°02'0 0.0
2017-Nov-16 02:30N 40°40' W 074°02'0 0.0
2017-Nov-16 02:00N 40°40' W 074°02'0 0.1
2017-Nov-16 01:30N 40°40' W 074°02'0 0.1
2017-Nov-16 01:00N 40°40' W 074°02'0 0.1
2017-Nov-16 00:30N 40°40' W 074°02'0 0.0
2017-Nov-16 00:01N 40°40' W 074°02'0 0.0
2017-Nov-15 23:30N 40°40' W 074°02'0 0.0
2017-Nov-15 23:00N 40°40' W 074°02'0 0.0
2017-Nov-15 22:30N 40°40' W 074°02'1 2.4
2017-Nov-15 22:00N 40°40' W 074°04'3 5.6
2017-Nov-15 21:29N 40°39' W 074°07'0 0.0
2017-Nov-15 21:00N 40°39' W 074°07'0 0.0
2017-Nov-15 20:30N 40°39' W 074°07'0 0.0
2017-Nov-15 20:00N 40°39' W 074°07'1 2.7
2017-Nov-15 19:30N 40°39' W 074°05'5 9.0
2017-Nov-15 19:00N 40°42' W 074°00'0 0.1
2017-Nov-15 18:30N 40°41' W 074°00'0 0.3
2017-Nov-15 17:59N 40°41' W 074°00'2 4.5
2017-Nov-15 17:30N 40°40' W 074°02'0 0.0
2017-Nov-15 17:00N 40°40' W 074°02'0 0.0
2017-Nov-15 16:30N 40°40' W 074°02'0 0.0
2017-Nov-15 16:00N 40°40' W 074°02'0 0.0
2017-Nov-15 15:30N 40°40' W 074°02'0 0.0
2017-Nov-15 15:00N 40°40' W 074°02'0 0.0
2017-Nov-15 14:30N 40°40' W 074°02'0 0.0
2017-Nov-15 14:00N 40°40' W 074°02'0 0.0
2017-Nov-15 13:30N 40°40' W 074°02'0 0.0
2017-Nov-15 13:00N 40°40' W 074°02'0 0.2
2017-Nov-15 12:30N 40°40' W 074°02'0 0.2
2017-Nov-15 12:00N 40°40' W 074°02'0 0.0
2017-Nov-15 11:30N 40°40' W 074°02'0 0.0
2017-Nov-15 11:00N 40°40' W 074°02'0 0.0
2017-Nov-15 10:30N 40°40' W 074°02'0 0.0
2017-Nov-15 10:00N 40°40' W 074°02'0 0.0
2017-Nov-15 09:30N 40°40' W 074°02'0 0.1
2017-Nov-15 09:00N 40°40' W 074°02'0 0.2
2017-Nov-15 08:30N 40°40' W 074°02'0 0.0
2017-Nov-15 08:00N 40°40' W 074°02'0 0.0
2017-Nov-15 07:30N 40°40' W 074°02'0 0.0
2017-Nov-15 07:00N 40°40' W 074°02'0 0.0
2017-Nov-15 06:30N 40°40' W 074°02'0 0.0
2017-Nov-15 06:01N 40°40' W 074°02'0 0.0
2017-Nov-15 05:30N 40°40' W 074°02'0 0.0
2017-Nov-15 05:01N 40°40' W 074°02'0 0.0
2017-Nov-15 04:31N 40°40' W 074°02'0 0.0
2017-Nov-15 04:01N 40°40' W 074°02'0 0.0
2017-Nov-15 03:30N 40°40' W 074°02'0 0.1
2017-Nov-15 03:00N 40°40' W 074°02'0 0.1
2017-Nov-15 02:31N 40°40' W 074°02'0 0.0
2017-Nov-15 02:00N 40°40' W 074°02'0 0.0
2017-Nov-15 01:30N 40°40' W 074°02'0 0.0
2017-Nov-15 01:00N 40°40' W 074°02'0 0.3
2017-Nov-15 00:30N 40°40' W 074°02'2 4.7
2017-Nov-15 00:01N 40°42' W 074°00'4 8.0
2017-Nov-14 23:30N 40°45' W 073°58'4 7.7
2017-Nov-14 22:59N 40°48' W 073°54'22 0.5
2017-Nov-13 01:02N 40°33' W 074°14'0 0.0
2017-Nov-13 00:57N 40°33' W 074°14'0 0.1
2017-Nov-12 21:46N 40°33' W 074°14'2 2.2
2017-Nov-12 20:55N 40°35' W 074°13'2 5.1
2017-Nov-12 20:29N 40°37' W 074°12'3 5.8
2017-Nov-12 19:59N 40°39' W 074°09'3 7.3
2017-Nov-12 19:30N 40°39' W 074°04'2 3.1
2017-Nov-12 19:00N 40°39' W 074°02'0 0.0
2017-Nov-12 18:30N 40°39' W 074°02'0 0.0
2017-Nov-12 18:00N 40°39' W 074°02'0 0.2
2017-Nov-12 17:30N 40°39' W 074°02'0 0.1
2017-Nov-12 17:00N 40°39' W 074°02'0 0.0
2017-Nov-12 16:31N 40°39' W 074°02'0 0.0
2017-Nov-12 16:01N 40°39' W 074°02'0 0.0
2017-Nov-12 15:30N 40°39' W 074°02'0 0.0
2017-Nov-12 15:00N 40°39' W 074°02'0 0.0
2017-Nov-12 14:30N 40°39' W 074°02'0 0.0
2017-Nov-12 14:01N 40°39' W 074°02'0 0.0
2017-Nov-12 13:30N 40°39' W 074°02'0 0.0
2017-Nov-12 13:01N 40°39' W 074°02'0 0.0
2017-Nov-12 12:30N 40°39' W 074°02'0 0.0
2017-Nov-12 12:00N 40°39' W 074°02'0 0.0
2017-Nov-12 11:30N 40°39' W 074°02'0 0.0
2017-Nov-12 11:00N 40°39' W 074°02'0 0.0
2017-Nov-12 10:30N 40°39' W 074°02'0 0.3
2017-Nov-12 10:01N 40°39' W 074°02'1 2.7
2017-Nov-12 09:31N 40°41' W 074°02'11 0.3
2017-Nov-11 02:30N 40°48' W 073°52'4 7.2
2017-Nov-11 02:00N 40°47' W 073°56'3 5.2
2017-Nov-11 01:30N 40°45' W 073°58'3 5.2
2017-Nov-11 01:00N 40°42' W 073°60'4 7.4
2017-Nov-11 00:30N 40°40' W 074°03'4 8.2
2017-Nov-11 00:00N 40°39' W 074°08'3 6.6
2017-Nov-10 23:30N 40°37' W 074°12'2 1.0
2017-Nov-10 21:28N 40°35' W 074°12'3 6.3
2017-Nov-10 21:00N 40°38' W 074°12'5 9.5
2017-Nov-10 20:31N 40°39' W 074°06'0 0.4
2017-Nov-10 20:00N 40°39' W 074°05'0 0.0
2017-Nov-10 19:00N 40°39' W 074°05'0 0.0
2017-Nov-10 18:30N 40°39' W 074°05'0 0.0
2017-Nov-10 18:00N 40°39' W 074°05'0 0.0
2017-Nov-10 17:30N 40°39' W 074°05'3 5.6
2017-Nov-10 17:00N 40°39' W 074°09'7 0.7
2017-Nov-10 06:15N 40°33' W 074°15'0 0.0
2017-Nov-10 05:48N 40°33' W 074°15'0 0.0
2017-Nov-10 05:22N 40°33' W 074°15'0 0.0
2017-Nov-10 04:46N 40°33' W 074°15'0 0.0
2017-Nov-10 04:30N 40°33' W 074°15'0 0.0
2017-Nov-10 03:54N 40°33' W 074°15'0 0.0
2017-Nov-10 03:16N 40°33' W 074°15'0 0.0
2017-Nov-10 02:40N 40°33' W 074°15'0 0.0
2017-Nov-10 02:18N 40°33' W 074°15'0 0.0
2017-Nov-10 01:52N 40°33' W 074°15'2 5.8
2017-Nov-10 01:29N 40°34' W 074°13'5 9.9
2017-Nov-10 01:00N 40°39' W 074°11'3 6.2
2017-Nov-10 00:31N 40°39' W 074°07'0 0.0
2017-Nov-10 00:01N 40°39' W 074°07'0 0.0
2017-Nov-09 23:30N 40°39' W 074°07'0 0.0
2017-Nov-09 23:00N 40°39' W 074°07'0 0.0
2017-Nov-09 22:30N 40°39' W 074°07'0 0.0
2017-Nov-09 22:00N 40°39' W 074°07'0 0.0
2017-Nov-09 21:30N 40°39' W 074°07'0 0.0
2017-Nov-09 21:00N 40°39' W 074°07'0 0.0
2017-Nov-09 20:31N 40°39' W 074°07'3 4.8
2017-Nov-09 19:59N 40°39' W 074°10'7 8.3
2017-Nov-09 19:08N 40°33' W 074°15'0 0.4
2017-Nov-09 18:57N 40°33' W 074°15'0 0.3
2017-Nov-09 18:20N 40°33' W 074°15'1 2.1
2017-Nov-09 17:55N 40°33' W 074°15'3 5.8
2017-Nov-09 17:26N 40°36' W 074°12'3 7.4
2017-Nov-09 17:00N 40°39' W 074°11'2 4.5
2017-Nov-09 16:30N 40°39' W 074°08'5 9.2
2017-Nov-09 16:00N 40°40' W 074°03'0 0.8
2017-Nov-09 15:30N 40°40' W 074°02'0 0.1
2017-Nov-09 15:00N 40°40' W 074°02'0 0.2
2017-Nov-09 14:31N 40°40' W 074°02'0 0.1
2017-Nov-09 14:01N 40°40' W 074°02'0 0.0
2017-Nov-09 13:30N 40°40' W 074°02'0 0.0
2017-Nov-09 13:00N 40°40' W 074°02'1 1.4
2017-Nov-09 12:30N 40°41' W 074°02'5 9.0
2017-Nov-09 12:00N 40°44' W 073°58'510.2
2017-Nov-09 11:30N 40°48' W 073°54'52 8.7
2017-Nov-09 05:30N 41°05' W 072°49'510.4
2017-Nov-09 05:00N 41°07' W 072°42'611.3
2017-Nov-09 04:30N 41°08' W 072°35'612.1
2017-Nov-09 04:00N 41°10' W 072°27'104 8.3
2017-Nov-08 15:20N 42°13' W 070°35'3 8.9
2017-Nov-08 15:01N 42°15' W 070°38'4 8.9
2017-Nov-08 14:30N 42°19' W 070°42'4 8.4
2017-Nov-08 14:00N 42°21' W 070°47'4 8.4
2017-Nov-08 13:30N 42°23' W 070°52'4 8.1
2017-Nov-08 12:57N 42°20' W 070°57'4 8.7
2017-Nov-08 12:31N 42°21' W 071°02'2 3.6
2017-Nov-08 11:58N 42°23' W 071°02'1 1.4
2017-Nov-08 11:31N 42°24' W 071°01'0 0.0
2017-Nov-08 11:00N 42°24' W 071°01'0 0.0
2017-Nov-08 10:31N 42°24' W 071°01'0 0.0
2017-Nov-08 10:00N 42°24' W 071°01'0 0.0
2017-Nov-08 09:30N 42°24' W 071°01'0 0.0
2017-Nov-08 09:00N 42°24' W 071°01'0 0.0
2017-Nov-08 08:30N 42°24' W 071°01'0 0.0
2017-Nov-08 08:01N 42°24' W 071°01'0 0.0
2017-Nov-08 07:29N 42°24' W 071°01'0 0.0
2017-Nov-08 06:56N 42°24' W 071°01'  
Track history (hours):
 
Tides and Currents Weather Stations Pressure Air Temp Water Temp Dewpoint Dewpoint Depression Visibility Wind Speed Wind Dir Waves Ship Positions

Evening Star

Owner: Tug Evening Star Corp, Melville, NY. More information available from US FCC via Universal Licensing System and Coast Guard Vessel Documentation Center.

Last reported at 2017-Nov-18 06:28 UTC. Time now 2017-Nov-18 17:52 UTC.
Position N 41°14' W 072°08'.

Length 34 m; draft 5.5 m.

Type: Towing. MMSI: 366834000.

Date/timePositionNaut miles runAvg speedWind from/ knotsBaromVisibWave heightAir tempDewpointWater temp
2017-Nov-18 06:28N 41°14' W 072°08'612.0
2017-Nov-18 06:00N 41°12' W 072°15'611.7
2017-Nov-18 05:30N 41°11' W 072°23'611.2
2017-Nov-18 05:00N 41°10' W 072°30'510.4
2017-Nov-18 04:30N 41°11' W 072°37'49 2.5
2017-Nov-17 08:53N 40°55' W 073°39'4 9.3
2017-Nov-17 08:29N 40°53' W 073°43'5 9.6
2017-Nov-17 07:59N 40°49' W 073°47'4 7.8
2017-Nov-17 07:30N 40°48' W 073°52'3 6.6
2017-Nov-17 07:00N 40°47' W 073°56'3 6.0
2017-Nov-17 06:30N 40°45' W 073°58'3 5.3
2017-Nov-17 06:00N 40°42' W 073°60'4 7.1
2017-Nov-17 05:30N 40°39' W 074°03'4 7.6
2017-Nov-17 05:00N 40°39' W 074°08'3 6.7
2017-Nov-17 04:30N 40°38' W 074°12'5 2.8
2017-Nov-17 02:38N 40°33' W 074°15'4 0.8
2017-Nov-16 21:55N 40°36' W 074°12'3 7.8
2017-Nov-16 21:30N 40°39' W 074°10'1 2.0
2017-Nov-16 20:59N 40°39' W 074°09'4 6.1
2017-Nov-16 20:18N 40°35' W 074°13'0 0.1
2017-Nov-16 19:59N 40°35' W 074°12'3 5.3
2017-Nov-16 19:30N 40°38' W 074°12'1 2.2
2017-Nov-16 18:59N 40°37' W 074°12'4 1.0
2017-Nov-16 14:36N 40°33' W 074°15'1 2.9
2017-Nov-16 14:22N 40°33' W 074°15'2 4.4
2017-Nov-16 13:58N 40°34' W 074°13'2 4.2
2017-Nov-16 13:29N 40°36' W 074°12'2 3.9
2017-Nov-16 13:00N 40°38' W 074°12'4 8.1
2017-Nov-16 12:30N 40°39' W 074°07'4 7.5
2017-Nov-16 12:00N 40°40' W 074°02'0 0.1
2017-Nov-16 11:30N 40°40' W 074°02'0 0.1
2017-Nov-16 11:00N 40°40' W 074°02'0 0.0
2017-Nov-16 10:30N 40°40' W 074°02'0 0.0
2017-Nov-16 10:00N 40°40' W 074°02'0 0.0
2017-Nov-16 09:30N 40°40' W 074°02'0 0.0
2017-Nov-16 09:00N 40°40' W 074°02'0 0.0
2017-Nov-16 08:30N 40°40' W 074°02'0 0.2
2017-Nov-16 08:00N 40°40' W 074°02'0 0.1
2017-Nov-16 07:30N 40°40' W 074°02'0 0.0
2017-Nov-16 07:00N 40°40' W 074°02'0 0.1
2017-Nov-16 06:30N 40°40' W 074°02'0 0.0
2017-Nov-16 06:00N 40°40' W 074°02'0 0.0
2017-Nov-16 05:30N 40°40' W 074°02'0 0.0
2017-Nov-16 05:00N 40°40' W 074°02'0 0.0
2017-Nov-16 04:30N 40°40' W 074°02'0 0.0
2017-Nov-16 04:00N 40°40' W 074°02'0 0.0
2017-Nov-16 03:30N 40°40' W 074°02'0 0.0
2017-Nov-16 03:00N 40°40' W 074°02'0 0.0
2017-Nov-16 02:30N 40°40' W 074°02'0 0.0
2017-Nov-16 02:00N 40°40' W 074°02'0 0.1
2017-Nov-16 01:30N 40°40' W 074°02'0 0.1
2017-Nov-16 01:00N 40°40' W 074°02'0 0.1
2017-Nov-16 00:30N 40°40' W 074°02'0 0.0
2017-Nov-16 00:01N 40°40' W 074°02'0 0.0
2017-Nov-15 23:30N 40°40' W 074°02'0 0.0
2017-Nov-15 23:00N 40°40' W 074°02'0 0.0
2017-Nov-15 22:30N 40°40' W 074°02'1 2.4
2017-Nov-15 22:00N 40°40' W 074°04'3 5.6
2017-Nov-15 21:29N 40°39' W 074°07'0 0.0
2017-Nov-15 21:00N 40°39' W 074°07'0 0.0
2017-Nov-15 20:30N 40°39' W 074°07'0 0.0
2017-Nov-15 20:00N 40°39' W 074°07'1 2.7
2017-Nov-15 19:30N 40°39' W 074°05'5 9.0
2017-Nov-15 19:00N 40°42' W 074°00'0 0.1
2017-Nov-15 18:30N 40°41' W 074°00'0 0.3
2017-Nov-15 17:59N 40°41' W 074°00'2 4.5
2017-Nov-15 17:30N 40°40' W 074°02'0 0.0
2017-Nov-15 17:00N 40°40' W 074°02'0 0.0
2017-Nov-15 16:30N 40°40' W 074°02'0 0.0
2017-Nov-15 16:00N 40°40' W 074°02'0 0.0
2017-Nov-15 15:30N 40°40' W 074°02'0 0.0
2017-Nov-15 15:00N 40°40' W 074°02'0 0.0
2017-Nov-15 14:30N 40°40' W 074°02'0 0.0
2017-Nov-15 14:00N 40°40' W 074°02'0 0.0
2017-Nov-15 13:30N 40°40' W 074°02'0 0.0
2017-Nov-15 13:00N 40°40' W 074°02'0 0.2
2017-Nov-15 12:30N 40°40' W 074°02'0 0.2
2017-Nov-15 12:00N 40°40' W 074°02'0 0.0
2017-Nov-15 11:30N 40°40' W 074°02'0 0.0
2017-Nov-15 11:00N 40°40' W 074°02'0 0.0
2017-Nov-15 10:30N 40°40' W 074°02'0 0.0
2017-Nov-15 10:00N 40°40' W 074°02'0 0.0
2017-Nov-15 09:30N 40°40' W 074°02'0 0.1
2017-Nov-15 09:00N 40°40' W 074°02'0 0.2
2017-Nov-15 08:30N 40°40' W 074°02'0 0.0
2017-Nov-15 08:00N 40°40' W 074°02'0 0.0
2017-Nov-15 07:30N 40°40' W 074°02'0 0.0
2017-Nov-15 07:00N 40°40' W 074°02'0 0.0
2017-Nov-15 06:30N 40°40' W 074°02'0 0.0
2017-Nov-15 06:01N 40°40' W 074°02'0 0.0
2017-Nov-15 05:30N 40°40' W 074°02'0 0.0
2017-Nov-15 05:01N 40°40' W 074°02'0 0.0
2017-Nov-15 04:31N 40°40' W 074°02'0 0.0
2017-Nov-15 04:01N 40°40' W 074°02'0 0.0
2017-Nov-15 03:30N 40°40' W 074°02'0 0.1
2017-Nov-15 03:00N 40°40' W 074°02'0 0.1
2017-Nov-15 02:31N 40°40' W 074°02'0 0.0
2017-Nov-15 02:00N 40°40' W 074°02'0 0.0
2017-Nov-15 01:30N 40°40' W 074°02'0 0.0
2017-Nov-15 01:00N 40°40' W 074°02'0 0.3
2017-Nov-15 00:30N 40°40' W 074°02'2 4.7
2017-Nov-15 00:01N 40°42' W 074°00'4 8.0
2017-Nov-14 23:30N 40°45' W 073°58'4 7.7
2017-Nov-14 22:59N 40°48' W 073°54'22 0.5
2017-Nov-13 01:02N 40°33' W 074°14'0 0.0
2017-Nov-13 00:57N 40°33' W 074°14'0 0.1
2017-Nov-12 21:46N 40°33' W 074°14'2 2.2
2017-Nov-12 20:55N 40°35' W 074°13'2 5.1
2017-Nov-12 20:29N 40°37' W 074°12'3 5.8
2017-Nov-12 19:59N 40°39' W 074°09'3 7.3
2017-Nov-12 19:30N 40°39' W 074°04'2 3.1
2017-Nov-12 19:00N 40°39' W 074°02'0 0.0
2017-Nov-12 18:30N 40°39' W 074°02'0 0.0
2017-Nov-12 18:00N 40°39' W 074°02'0 0.2
2017-Nov-12 17:30N 40°39' W 074°02'0 0.1
2017-Nov-12 17:00N 40°39' W 074°02'0 0.0
2017-Nov-12 16:31N 40°39' W 074°02'0 0.0
2017-Nov-12 16:01N 40°39' W 074°02'0 0.0
2017-Nov-12 15:30N 40°39' W 074°02'0 0.0
2017-Nov-12 15:00N 40°39' W 074°02'0 0.0
2017-Nov-12 14:30N 40°39' W 074°02'0 0.0
2017-Nov-12 14:01N 40°39' W 074°02'0 0.0
2017-Nov-12 13:30N 40°39' W 074°02'0 0.0
2017-Nov-12 13:01N 40°39' W 074°02'0 0.0
2017-Nov-12 12:30N 40°39' W 074°02'0 0.0
2017-Nov-12 12:00N 40°39' W 074°02'0 0.0
2017-Nov-12 11:30N 40°39' W 074°02'0 0.0
2017-Nov-12 11:00N 40°39' W 074°02'0 0.0
2017-Nov-12 10:30N 40°39' W 074°02'0 0.3
2017-Nov-12 10:01N 40°39' W 074°02'1 2.7
2017-Nov-12 09:31N 40°41' W 074°02'11 0.3
2017-Nov-11 02:30N 40°48' W 073°52'4 7.2
2017-Nov-11 02:00N 40°47' W 073°56'3 5.2
2017-Nov-11 01:30N 40°45' W 073°58'3 5.2
2017-Nov-11 01:00N 40°42' W 073°60'4 7.4
2017-Nov-11 00:30N 40°40' W 074°03'4 8.2
2017-Nov-11 00:00N 40°39' W 074°08'3 6.6
2017-Nov-10 23:30N 40°37' W 074°12'2 1.0
2017-Nov-10 21:28N 40°35' W 074°12'3 6.3
2017-Nov-10 21:00N 40°38' W 074°12'5 9.5
2017-Nov-10 20:31N 40°39' W 074°06'0 0.4
2017-Nov-10 20:00N 40°39' W 074°05'0 0.0
2017-Nov-10 19:00N 40°39' W 074°05'0 0.0
2017-Nov-10 18:30N 40°39' W 074°05'0 0.0
2017-Nov-10 18:00N 40°39' W 074°05'0 0.0
2017-Nov-10 17:30N 40°39' W 074°05'3 5.6
2017-Nov-10 17:00N 40°39' W 074°09'7 0.7
2017-Nov-10 06:15N 40°33' W 074°15'0 0.0
2017-Nov-10 05:48N 40°33' W 074°15'0 0.0
2017-Nov-10 05:22N 40°33' W 074°15'0 0.0
2017-Nov-10 04:46N 40°33' W 074°15'0 0.0
2017-Nov-10 04:30N 40°33' W 074°15'0 0.0
2017-Nov-10 03:54N 40°33' W 074°15'0 0.0
2017-Nov-10 03:16N 40°33' W 074°15'0 0.0
2017-Nov-10 02:40N 40°33' W 074°15'0 0.0
2017-Nov-10 02:18N 40°33' W 074°15'0 0.0
2017-Nov-10 01:52N 40°33' W 074°15'2 5.8
2017-Nov-10 01:29N 40°34' W 074°13'5 9.9
2017-Nov-10 01:00N 40°39' W 074°11'3 6.2
2017-Nov-10 00:31N 40°39' W 074°07'0 0.0
2017-Nov-10 00:01N 40°39' W 074°07'0 0.0
2017-Nov-09 23:30N 40°39' W 074°07'0 0.0
2017-Nov-09 23:00N 40°39' W 074°07'0 0.0
2017-Nov-09 22:30N 40°39' W 074°07'0 0.0
2017-Nov-09 22:00N 40°39' W 074°07'0 0.0
2017-Nov-09 21:30N 40°39' W 074°07'0 0.0
2017-Nov-09 21:00N 40°39' W 074°07'0 0.0
2017-Nov-09 20:31N 40°39' W 074°07'3 4.8
2017-Nov-09 19:59N 40°39' W 074°10'7 8.3
2017-Nov-09 19:08N 40°33' W 074°15'0 0.4
2017-Nov-09 18:57N 40°33' W 074°15'0 0.3
2017-Nov-09 18:20N 40°33' W 074°15'1 2.1
2017-Nov-09 17:55N 40°33' W 074°15'3 5.8
2017-Nov-09 17:26N 40°36' W 074°12'3 7.4
2017-Nov-09 17:00N 40°39' W 074°11'2 4.5
2017-Nov-09 16:30N 40°39' W 074°08'5 9.2
2017-Nov-09 16:00N 40°40' W 074°03'0 0.8
2017-Nov-09 15:30N 40°40' W 074°02'0 0.1
2017-Nov-09 15:00N 40°40' W 074°02'0 0.2
2017-Nov-09 14:31N 40°40' W 074°02'0 0.1
2017-Nov-09 14:01N 40°40' W 074°02'0 0.0
2017-Nov-09 13:30N 40°40' W 074°02'0 0.0
2017-Nov-09 13:00N 40°40' W 074°02'1 1.4
2017-Nov-09 12:30N 40°41' W 074°02'5 9.0
2017-Nov-09 12:00N 40°44' W 073°58'510.2
2017-Nov-09 11:30N 40°48' W 073°54'52 8.7
2017-Nov-09 05:30N 41°05' W 072°49'510.4
2017-Nov-09 05:00N 41°07' W 072°42'611.3
2017-Nov-09 04:30N 41°08' W 072°35'612.1
2017-Nov-09 04:00N 41°10' W 072°27'104 8.3
2017-Nov-08 15:20N 42°13' W 070°35'3 8.9
2017-Nov-08 15:01N 42°15' W 070°38'4 8.9
2017-Nov-08 14:30N 42°19' W 070°42'4 8.4
2017-Nov-08 14:00N 42°21' W 070°47'4 8.4
2017-Nov-08 13:30N 42°23' W 070°52'4 8.1
2017-Nov-08 12:57N 42°20' W 070°57'4 8.7
2017-Nov-08 12:31N 42°21' W 071°02'2 3.6
2017-Nov-08 11:58N 42°23' W 071°02'1 1.4
2017-Nov-08 11:31N 42°24' W 071°01'0 0.0
2017-Nov-08 11:00N 42°24' W 071°01'0 0.0
2017-Nov-08 10:31N 42°24' W 071°01'0 0.0
2017-Nov-08 10:00N 42°24' W 071°01'0 0.0
2017-Nov-08 09:30N 42°24' W 071°01'0 0.0
2017-Nov-08 09:00N 42°24' W 071°01'0 0.0
2017-Nov-08 08:30N 42°24' W 071°01'0 0.0
2017-Nov-08 08:01N 42°24' W 071°01'0 0.0
2017-Nov-08 07:29N 42°24' W 071°01'0 0.0
2017-Nov-08 06:56N 42°24' W 071°01'  

Dump ship's entire track history